sensor_id;sensor_type;location;lat;lon;timestamp;temperature;humidity
69715;HTU21D;56981;53.532;49.398;2022-09-28T00:00:06;12.52;73.17
69715;HTU21D;56981;53.532;49.398;2022-09-28T00:02:32;12.44;73.70
69715;HTU21D;56981;53.532;49.398;2022-09-28T00:05:00;12.44;75.39
69715;HTU21D;56981;53.532;49.398;2022-09-28T00:07:27;12.34;74.73
69715;HTU21D;56981;53.532;49.398;2022-09-28T00:09:53;12.28;76.79
69715;HTU21D;56981;53.532;49.398;2022-09-28T00:12:19;12.23;77.21
69715;HTU21D;56981;53.532;49.398;2022-09-28T00:14:46;12.18;76.54
69715;HTU21D;56981;53.532;49.398;2022-09-28T00:17:12;12.10;77.76
69715;HTU21D;56981;53.532;49.398;2022-09-28T00:19:38;12.04;78.27
69715;HTU21D;56981;53.532;49.398;2022-09-28T00:22:08;11.99;78.70
69715;HTU21D;56981;53.532;49.398;2022-09-28T00:24:34;11.96;78.80
69715;HTU21D;56981;53.532;49.398;2022-09-28T00:27:00;11.97;78.92
69715;HTU21D;56981;53.532;49.398;2022-09-28T00:29:35;11.91;79.58
69715;HTU21D;56981;53.532;49.398;2022-09-28T00:32:09;11.86;79.69
69715;HTU21D;56981;53.532;49.398;2022-09-28T00:34:38;11.82;79.33
69715;HTU21D;56981;53.532;49.398;2022-09-28T00:37:07;11.75;80.40
69715;HTU21D;56981;53.532;49.398;2022-09-28T00:39:34;11.76;80.08
69715;HTU21D;56981;53.532;49.398;2022-09-28T00:42:01;11.72;79.88
69715;HTU21D;56981;53.532;49.398;2022-09-28T00:49:50;11.61;80.72
69715;HTU21D;56981;53.532;49.398;2022-09-28T00:54:52;11.54;80.38
69715;HTU21D;56981;53.532;49.398;2022-09-28T00:57:20;11.57;81.25
69715;HTU21D;56981;53.532;49.398;2022-09-28T00:59:48;11.54;81.41
69715;HTU21D;56981;53.532;49.398;2022-09-28T01:02:14;11.52;81.72
69715;HTU21D;56981;53.532;49.398;2022-09-28T01:04:40;11.49;81.14
69715;HTU21D;56981;53.532;49.398;2022-09-28T01:07:07;11.47;81.15
69715;HTU21D;56981;53.532;49.398;2022-09-28T01:09:37;11.45;81.77
69715;HTU21D;56981;53.532;49.398;2022-09-28T01:12:04;11.42;82.17
69715;HTU21D;56981;53.532;49.398;2022-09-28T01:14:30;11.40;81.94
69715;HTU21D;56981;53.532;49.398;2022-09-28T01:30:39;11.24;84.03
69715;HTU21D;56981;53.532;49.398;2022-09-28T01:33:12;11.26;83.86
69715;HTU21D;56981;53.532;49.398;2022-09-28T01:35:41;11.26;83.81
69715;HTU21D;56981;53.532;49.398;2022-09-28T01:38:19;11.23;84.16
69715;HTU21D;56981;53.532;49.398;2022-09-28T01:40:47;11.24;84.52
69715;HTU21D;56981;53.532;49.398;2022-09-28T01:43:20;11.25;83.94
69715;HTU21D;56981;53.532;49.398;2022-09-28T01:45:51;11.18;84.83
69715;HTU21D;56981;53.532;49.398;2022-09-28T01:48:23;11.15;84.86
69715;HTU21D;56981;53.532;49.398;2022-09-28T01:50:54;11.10;84.79
69715;HTU21D;56981;53.532;49.398;2022-09-28T01:53:23;11.05;85.35
69715;HTU21D;56981;53.532;49.398;2022-09-28T01:55:54;11.01;87.02
69715;HTU21D;56981;53.532;49.398;2022-09-28T01:58:37;10.96;85.04
69715;HTU21D;56981;53.532;49.398;2022-09-28T02:01:40;10.93;85.64
69715;HTU21D;56981;53.532;49.398;2022-09-28T02:07:17;10.82;85.98
69715;HTU21D;56981;53.532;49.398;2022-09-28T02:09:48;10.77;86.27
69715;HTU21D;56981;53.532;49.398;2022-09-28T02:12:22;10.78;86.51
69715;HTU21D;56981;53.532;49.398;2022-09-28T02:14:53;10.77;86.61
69715;HTU21D;56981;53.532;49.398;2022-09-28T02:17:20;10.79;87.03
69715;HTU21D;56981;53.532;49.398;2022-09-28T02:19:46;10.80;86.27
69715;HTU21D;56981;53.532;49.398;2022-09-28T02:22:58;10.78;86.41
69715;HTU21D;56981;53.532;49.398;2022-09-28T02:25:12;10.81;86.09
69715;HTU21D;56981;53.532;49.398;2022-09-28T02:27:59;10.78;85.60
69715;HTU21D;56981;53.532;49.398;2022-09-28T02:30:25;10.79;85.63
69715;HTU21D;56981;53.532;49.398;2022-09-28T02:32:54;10.77;86.43
69715;HTU21D;56981;53.532;49.398;2022-09-28T02:35:22;10.72;84.90
69715;HTU21D;56981;53.532;49.398;2022-09-28T02:37:48;10.74;85.13
69715;HTU21D;56981;53.532;49.398;2022-09-28T02:40:34;10.70;85.03
69715;HTU21D;56981;53.532;49.398;2022-09-28T02:48:51;10.67;84.68
69715;HTU21D;56981;53.532;49.398;2022-09-28T02:54:25;10.69;84.44
69715;HTU21D;56981;53.532;49.398;2022-09-28T02:57:05;10.66;84.26
69715;HTU21D;56981;53.532;49.398;2022-09-28T02:59:38;10.66;84.16
69715;HTU21D;56981;53.532;49.398;2022-09-28T03:02:22;10.66;84.31
69715;HTU21D;56981;53.532;49.398;2022-09-28T03:05:05;10.66;84.02
69715;HTU21D;56981;53.532;49.398;2022-09-28T03:07:40;10.64;85.18
69715;HTU21D;56981;53.532;49.398;2022-09-28T03:10:35;10.58;84.94
69715;HTU21D;56981;53.532;49.398;2022-09-28T03:13:03;10.63;85.61
69715;HTU21D;56981;53.532;49.398;2022-09-28T03:15:31;10.60;84.89
69715;HTU21D;56981;53.532;49.398;2022-09-28T03:17:58;10.62;84.62
69715;HTU21D;56981;53.532;49.398;2022-09-28T03:20:28;10.64;84.11
69715;HTU21D;56981;53.532;49.398;2022-09-28T03:22:55;10.58;85.26
69715;HTU21D;56981;53.532;49.398;2022-09-28T03:25:21;10.58;85.21
69715;HTU21D;56981;53.532;49.398;2022-09-28T03:27:47;10.62;85.03
69715;HTU21D;56981;53.532;49.398;2022-09-28T03:30:13;10.62;85.82
69715;HTU21D;56981;53.532;49.398;2022-09-28T03:32:39;10.57;86.70
69715;HTU21D;56981;53.532;49.398;2022-09-28T03:35:06;10.56;84.63
69715;HTU21D;56981;53.532;49.398;2022-09-28T03:37:33;10.57;85.42
69715;HTU21D;56981;53.532;49.398;2022-09-28T03:40:00;10.58;84.82
69715;HTU21D;56981;53.532;49.398;2022-09-28T03:42:26;10.58;84.10
69715;HTU21D;56981;53.532;49.398;2022-09-28T03:44:52;10.54;83.88
69715;HTU21D;56981;53.532;49.398;2022-09-28T03:47:18;10.49;84.11
69715;HTU21D;56981;53.532;49.398;2022-09-28T03:49:44;10.51;83.87
69715;HTU21D;56981;53.532;49.398;2022-09-28T03:52:12;10.46;85.45
69715;HTU21D;56981;53.532;49.398;2022-09-28T03:54:38;10.48;85.45
69715;HTU21D;56981;53.532;49.398;2022-09-28T03:57:04;10.45;84.75
69715;HTU21D;56981;53.532;49.398;2022-09-28T03:59:30;10.43;85.16
69715;HTU21D;56981;53.532;49.398;2022-09-28T04:01:56;10.42;84.77
69715;HTU21D;56981;53.532;49.398;2022-09-28T04:04:22;10.44;85.25
69715;HTU21D;56981;53.532;49.398;2022-09-28T04:06:49;10.50;85.29
69715;HTU21D;56981;53.532;49.398;2022-09-28T04:09:15;10.51;85.81
69715;HTU21D;56981;53.532;49.398;2022-09-28T04:11:41;10.54;85.59
69715;HTU21D;56981;53.532;49.398;2022-09-28T04:14:07;10.52;84.99
69715;HTU21D;56981;53.532;49.398;2022-09-28T04:16:33;10.57;85.65
69715;HTU21D;56981;53.532;49.398;2022-09-28T04:18:59;10.55;85.55
69715;HTU21D;56981;53.532;49.398;2022-09-28T04:21:25;10.57;85.25
69715;HTU21D;56981;53.532;49.398;2022-09-28T04:23:51;10.55;85.54
69715;HTU21D;56981;53.532;49.398;2022-09-28T04:26:23;10.50;85.29
69715;HTU21D;56981;53.532;49.398;2022-09-28T04:28:49;10.44;85.98
69715;HTU21D;56981;53.532;49.398;2022-09-28T04:31:52;10.39;86.20
69715;HTU21D;56981;53.532;49.398;2022-09-28T04:34:20;10.39;86.90
69715;HTU21D;56981;53.532;49.398;2022-09-28T04:36:47;10.36;87.09
69715;HTU21D;56981;53.532;49.398;2022-09-28T04:39:14;10.36;87.24
69715;HTU21D;56981;53.532;49.398;2022-09-28T04:41:41;10.34;86.48
69715;HTU21D;56981;53.532;49.398;2022-09-28T04:44:08;10.34;87.78
69715;HTU21D;56981;53.532;49.398;2022-09-28T04:46:34;10.33;88.07
69715;HTU21D;56981;53.532;49.398;2022-09-28T04:49:01;10.38;88.48
69715;HTU21D;56981;53.532;49.398;2022-09-28T04:51:29;10.42;87.22
69715;HTU21D;56981;53.532;49.398;2022-09-28T04:53:56;10.49;88.60
69715;HTU21D;56981;53.532;49.398;2022-09-28T04:56:22;10.53;87.80
69715;HTU21D;56981;53.532;49.398;2022-09-28T04:58:48;10.51;87.99
69715;HTU21D;56981;53.532;49.398;2022-09-28T05:01:16;10.55;87.54
69715;HTU21D;56981;53.532;49.398;2022-09-28T05:03:43;10.54;86.55
69715;HTU21D;56981;53.532;49.398;2022-09-28T05:06:12;10.56;86.85
69715;HTU21D;56981;53.532;49.398;2022-09-28T05:08:38;10.52;86.19
69715;HTU21D;56981;53.532;49.398;2022-09-28T05:11:06;10.51;86.52
69715;HTU21D;56981;53.532;49.398;2022-09-28T05:13:37;10.57;86.53
69715;HTU21D;56981;53.532;49.398;2022-09-28T05:16:06;10.58;85.60
69715;HTU21D;56981;53.532;49.398;2022-09-28T05:18:32;10.56;87.07
69715;HTU21D;56981;53.532;49.398;2022-09-28T05:20:58;10.55;85.96
69715;HTU21D;56981;53.532;49.398;2022-09-28T05:23:25;10.54;86.18
69715;HTU21D;56981;53.532;49.398;2022-09-28T05:25:52;10.56;87.55
69715;HTU21D;56981;53.532;49.398;2022-09-28T05:28:28;10.64;86.82
69715;HTU21D;56981;53.532;49.398;2022-09-28T05:31:03;10.64;87.57
69715;HTU21D;56981;53.532;49.398;2022-09-28T05:33:30;10.68;87.64
69715;HTU21D;56981;53.532;49.398;2022-09-28T05:35:57;10.66;85.80
69715;HTU21D;56981;53.532;49.398;2022-09-28T05:38:24;10.69;85.53
69715;HTU21D;56981;53.532;49.398;2022-09-28T05:40:50;10.70;85.79
69715;HTU21D;56981;53.532;49.398;2022-09-28T05:43:16;10.68;85.67
69715;HTU21D;56981;53.532;49.398;2022-09-28T05:45:43;10.67;86.86
69715;HTU21D;56981;53.532;49.398;2022-09-28T05:48:09;10.64;86.06
69715;HTU21D;56981;53.532;49.398;2022-09-28T05:50:35;10.73;86.98
69715;HTU21D;56981;53.532;49.398;2022-09-28T05:53:06;10.75;86.74
69715;HTU21D;56981;53.532;49.398;2022-09-28T05:55:34;10.74;86.21
69715;HTU21D;56981;53.532;49.398;2022-09-28T05:58:01;10.72;86.78
69715;HTU21D;56981;53.532;49.398;2022-09-28T06:00:29;10.73;87.03
69715;HTU21D;56981;53.532;49.398;2022-09-28T06:03:03;10.71;87.09
69715;HTU21D;56981;53.532;49.398;2022-09-28T06:05:29;10.73;85.72
69715;HTU21D;56981;53.532;49.398;2022-09-28T06:07:57;10.66;86.79
69715;HTU21D;56981;53.532;49.398;2022-09-28T06:10:25;10.60;87.73
69715;HTU21D;56981;53.532;49.398;2022-09-28T06:12:53;10.63;87.16
69715;HTU21D;56981;53.532;49.398;2022-09-28T06:15:21;10.62;87.76
69715;HTU21D;56981;53.532;49.398;2022-09-28T06:17:53;10.65;86.41
69715;HTU21D;56981;53.532;49.398;2022-09-28T06:20:19;10.67;87.84
69715;HTU21D;56981;53.532;49.398;2022-09-28T06:22:50;10.71;87.45
69715;HTU21D;56981;53.532;49.398;2022-09-28T06:25:16;10.65;87.31
69715;HTU21D;56981;53.532;49.398;2022-09-28T06:27:42;10.67;87.59
69715;HTU21D;56981;53.532;49.398;2022-09-28T06:30:08;10.71;87.79
69715;HTU21D;56981;53.532;49.398;2022-09-28T06:32:34;10.71;86.96
69715;HTU21D;56981;53.532;49.398;2022-09-28T06:35:00;10.73;86.47
69715;HTU21D;56981;53.532;49.398;2022-09-28T06:37:26;10.73;86.78
69715;HTU21D;56981;53.532;49.398;2022-09-28T06:39:53;10.72;87.57
69715;HTU21D;56981;53.532;49.398;2022-09-28T06:42:19;10.70;88.13
69715;HTU21D;56981;53.532;49.398;2022-09-28T06:44:45;10.72;88.02
69715;HTU21D;56981;53.532;49.398;2022-09-28T06:47:11;10.65;88.09
69715;HTU21D;56981;53.532;49.398;2022-09-28T06:49:37;10.64;88.12
69715;HTU21D;56981;53.532;49.398;2022-09-28T06:52:03;10.65;89.12
69715;HTU21D;56981;53.532;49.398;2022-09-28T06:54:29;10.67;88.72
69715;HTU21D;56981;53.532;49.398;2022-09-28T06:56:55;10.74;88.70
69715;HTU21D;56981;53.532;49.398;2022-09-28T06:59:21;10.77;89.14
69715;HTU21D;56981;53.532;49.398;2022-09-28T07:01:47;10.81;88.41
69715;HTU21D;56981;53.532;49.398;2022-09-28T07:04:13;10.81;89.03
69715;HTU21D;56981;53.532;49.398;2022-09-28T07:06:39;10.83;88.16
69715;HTU21D;56981;53.532;49.398;2022-09-28T07:09:05;10.80;88.94
69715;HTU21D;56981;53.532;49.398;2022-09-28T07:11:38;10.78;88.77
69715;HTU21D;56981;53.532;49.398;2022-09-28T07:14:10;10.75;89.18
69715;HTU21D;56981;53.532;49.398;2022-09-28T07:16:37;10.73;89.66
69715;HTU21D;56981;53.532;49.398;2022-09-28T07:19:03;10.81;89.51
69715;HTU21D;56981;53.532;49.398;2022-09-28T07:21:29;10.81;89.46
69715;HTU21D;56981;53.532;49.398;2022-09-28T07:23:55;10.81;88.64
69715;HTU21D;56981;53.532;49.398;2022-09-28T07:26:21;10.85;88.10
69715;HTU21D;56981;53.532;49.398;2022-09-28T07:28:47;10.90;88.20
69715;HTU21D;56981;53.532;49.398;2022-09-28T07:31:13;10.97;88.15
69715;HTU21D;56981;53.532;49.398;2022-09-28T07:33:39;11.02;87.96
69715;HTU21D;56981;53.532;49.398;2022-09-28T07:36:05;11.09;87.48
69715;HTU21D;56981;53.532;49.398;2022-09-28T07:38:32;11.11;88.29
69715;HTU21D;56981;53.532;49.398;2022-09-28T07:40:58;11.12;87.79
69715;HTU21D;56981;53.532;49.398;2022-09-28T07:43:36;11.09;87.51
69715;HTU21D;56981;53.532;49.398;2022-09-28T07:46:04;11.00;87.05
69715;HTU21D;56981;53.532;49.398;2022-09-28T07:48:35;10.86;87.71
69715;HTU21D;56981;53.532;49.398;2022-09-28T07:51:03;10.82;88.72
69715;HTU21D;56981;53.532;49.398;2022-09-28T07:53:29;10.81;88.96
69715;HTU21D;56981;53.532;49.398;2022-09-28T07:55:58;10.78;89.12
69715;HTU21D;56981;53.532;49.398;2022-09-28T07:58:33;10.75;89.65
69715;HTU21D;56981;53.532;49.398;2022-09-28T08:01:06;10.73;88.94
69715;HTU21D;56981;53.532;49.398;2022-09-28T08:03:33;10.72;90.30
69715;HTU21D;56981;53.532;49.398;2022-09-28T08:06:03;10.70;90.51
69715;HTU21D;56981;53.532;49.398;2022-09-28T08:08:29;10.69;91.13
69715;HTU21D;56981;53.532;49.398;2022-09-28T08:10:56;10.72;91.18
69715;HTU21D;56981;53.532;49.398;2022-09-28T08:13:23;10.71;91.02
69715;HTU21D;56981;53.532;49.398;2022-09-28T08:15:53;10.71;91.26
69715;HTU21D;56981;53.532;49.398;2022-09-28T08:18:19;10.71;90.58
69715;HTU21D;56981;53.532;49.398;2022-09-28T08:20:46;10.77;90.84
69715;HTU21D;56981;53.532;49.398;2022-09-28T08:23:31;10.83;91.46
69715;HTU21D;56981;53.532;49.398;2022-09-28T08:25:57;10.86;90.30
69715;HTU21D;56981;53.532;49.398;2022-09-28T08:28:23;10.84;89.83
69715;HTU21D;56981;53.532;49.398;2022-09-28T08:30:50;10.80;89.37
69715;HTU21D;56981;53.532;49.398;2022-09-28T08:33:17;10.82;90.30
69715;HTU21D;56981;53.532;49.398;2022-09-28T08:35:46;10.90;91.21
69715;HTU21D;56981;53.532;49.398;2022-09-28T08:38:12;11.00;90.44
69715;HTU21D;56981;53.532;49.398;2022-09-28T08:46:38;11.40;88.17
69715;HTU21D;56981;53.532;49.398;2022-09-28T08:49:20;11.58;88.76
69715;HTU21D;56981;53.532;49.398;2022-09-28T08:51:56;11.72;86.72
69715;HTU21D;56981;53.532;49.398;2022-09-28T08:57:24;11.64;86.58
69715;HTU21D;56981;53.532;49.398;2022-09-28T08:59:54;11.63;85.71
69715;HTU21D;56981;53.532;49.398;2022-09-28T09:02:34;11.56;85.76
69715;HTU21D;56981;53.532;49.398;2022-09-28T09:05:06;11.63;86.59
69715;HTU21D;56981;53.532;49.398;2022-09-28T09:18:59;11.91;84.23
69715;HTU21D;56981;53.532;49.398;2022-09-28T09:21:57;11.86;83.55
69715;HTU21D;56981;53.532;49.398;2022-09-28T09:24:36;11.88;83.61
69715;HTU21D;56981;53.532;49.398;2022-09-28T09:27:17;11.89;84.30
69715;HTU21D;56981;53.532;49.398;2022-09-28T09:30:02;11.87;84.35
69715;HTU21D;56981;53.532;49.398;2022-09-28T09:35:28;11.89;83.33
69715;HTU21D;56981;53.532;49.398;2022-09-28T09:43:31;11.82;83.74
69715;HTU21D;56981;53.532;49.398;2022-09-28T09:46:13;11.86;83.42
69715;HTU21D;56981;53.532;49.398;2022-09-28T09:51:35;11.92;82.60
69715;HTU21D;56981;53.532;49.398;2022-09-28T09:54:28;11.96;83.45
69715;HTU21D;56981;53.532;49.398;2022-09-28T09:56:58;12.02;83.40
69715;HTU21D;56981;53.532;49.398;2022-09-28T09:59:30;12.03;82.81
69715;HTU21D;56981;53.532;49.398;2022-09-28T10:02:06;11.97;82.17
69715;HTU21D;56981;53.532;49.398;2022-09-28T10:04:39;11.96;82.44
69715;HTU21D;56981;53.532;49.398;2022-09-28T10:07:15;11.93;82.41
69715;HTU21D;56981;53.532;49.398;2022-09-28T10:09:45;12.01;82.89
69715;HTU21D;56981;53.532;49.398;2022-09-28T10:12:18;12.05;82.29
69715;HTU21D;56981;53.532;49.398;2022-09-28T10:14:45;12.05;81.77
69715;HTU21D;56981;53.532;49.398;2022-09-28T10:17:15;12.11;82.10
69715;HTU21D;56981;53.532;49.398;2022-09-28T10:19:43;12.17;82.95
69715;HTU21D;56981;53.532;49.398;2022-09-28T10:22:16;12.06;82.20
69715;HTU21D;56981;53.532;49.398;2022-09-28T10:24:50;12.12;82.47
69715;HTU21D;56981;53.532;49.398;2022-09-28T10:27:18;12.12;83.20
69715;HTU21D;56981;53.532;49.398;2022-09-28T10:29:51;12.14;83.32
69715;HTU21D;56981;53.532;49.398;2022-09-28T10:32:24;12.19;83.01
69715;HTU21D;56981;53.532;49.398;2022-09-28T10:35:25;12.29;82.42
69715;HTU21D;56981;53.532;49.398;2022-09-28T10:38:06;12.26;82.20
69715;HTU21D;56981;53.532;49.398;2022-09-28T10:46:05;12.27;82.49
69715;HTU21D;56981;53.532;49.398;2022-09-28T10:51:12;12.31;81.78
69715;HTU21D;56981;53.532;49.398;2022-09-28T10:53:38;12.34;81.97
69715;HTU21D;56981;53.532;49.398;2022-09-28T10:56:19;12.30;81.75
69715;HTU21D;56981;53.532;49.398;2022-09-28T10:58:46;12.31;82.55
69715;HTU21D;56981;53.532;49.398;2022-09-28T11:01:16;12.35;82.36
69715;HTU21D;56981;53.532;49.398;2022-09-28T11:03:49;12.29;81.92
69715;HTU21D;56981;53.532;49.398;2022-09-28T11:06:34;12.26;81.71
69715;HTU21D;56981;53.532;49.398;2022-09-28T11:09:04;12.21;82.01
69715;HTU21D;56981;53.532;49.398;2022-09-28T11:11:39;12.21;82.05
69715;HTU21D;56981;53.532;49.398;2022-09-28T11:14:33;12.23;82.01
69715;HTU21D;56981;53.532;49.398;2022-09-28T11:17:16;12.26;82.10
69715;HTU21D;56981;53.532;49.398;2022-09-28T11:19:43;12.28;82.41
69715;HTU21D;56981;53.532;49.398;2022-09-28T11:22:37;12.27;82.13
69715;HTU21D;56981;53.532;49.398;2022-09-28T11:25:22;12.29;81.69
69715;HTU21D;56981;53.532;49.398;2022-09-28T11:30:24;12.46;81.71
69715;HTU21D;56981;53.532;49.398;2022-09-28T11:32:52;12.50;81.33
69715;HTU21D;56981;53.532;49.398;2022-09-28T11:44:04;12.47;81.24
69715;HTU21D;56981;53.532;49.398;2022-09-28T11:50:11;12.41;80.78
69715;HTU21D;56981;53.532;49.398;2022-09-28T11:57:37;12.36;81.48
69715;HTU21D;56981;53.532;49.398;2022-09-28T12:00:14;12.33;81.69
69715;HTU21D;56981;53.532;49.398;2022-09-28T12:05:48;12.25;82.13
69715;HTU21D;56981;53.532;49.398;2022-09-28T12:08:28;12.23;82.41
69715;HTU21D;56981;53.532;49.398;2022-09-28T12:11:20;12.27;82.75
69715;HTU21D;56981;53.532;49.398;2022-09-28T12:13:46;12.19;82.38
69715;HTU21D;56981;53.532;49.398;2022-09-28T12:16:43;12.20;82.61
69715;HTU21D;56981;53.532;49.398;2022-09-28T12:19:18;12.15;82.30
69715;HTU21D;56981;53.532;49.398;2022-09-28T12:21:58;12.11;82.31
69715;HTU21D;56981;53.532;49.398;2022-09-28T12:24:39;12.12;82.40
69715;HTU21D;56981;53.532;49.398;2022-09-28T12:27:26;12.10;82.42
69715;HTU21D;56981;53.532;49.398;2022-09-28T12:29:58;12.05;82.30
69715;HTU21D;56981;53.532;49.398;2022-09-28T12:32:43;12.11;82.75
69715;HTU21D;56981;53.532;49.398;2022-09-28T12:35:24;12.08;82.37
69715;HTU21D;56981;53.532;49.398;2022-09-28T12:57:00;12.03;82.98
69715;HTU21D;56981;53.532;49.398;2022-09-28T12:59:56;12.00;83.41
69715;HTU21D;56981;53.532;49.398;2022-09-28T13:08:46;11.81;86.53
69715;HTU21D;56981;53.532;49.398;2022-09-28T13:17:23;11.68;85.43
69715;HTU21D;56981;53.532;49.398;2022-09-28T13:25:03;11.68;85.96
69715;HTU21D;56981;53.532;49.398;2022-09-28T13:27:34;11.71;85.34
69715;HTU21D;56981;53.532;49.398;2022-09-28T13:30:03;11.72;85.42
69715;HTU21D;56981;53.532;49.398;2022-09-28T13:32:32;11.71;85.73
69715;HTU21D;56981;53.532;49.398;2022-09-28T13:35:00;11.69;85.30
69715;HTU21D;56981;53.532;49.398;2022-09-28T13:37:27;11.69;85.33
69715;HTU21D;56981;53.532;49.398;2022-09-28T13:39:57;11.70;85.20
69715;HTU21D;56981;53.532;49.398;2022-09-28T13:45:28;11.67;85.91
69715;HTU21D;56981;53.532;49.398;2022-09-28T13:54:31;11.64;86.12
69715;HTU21D;56981;53.532;49.398;2022-09-28T14:16:20;11.55;85.74
69715;HTU21D;56981;53.532;49.398;2022-09-28T14:19:18;11.56;85.86
69715;HTU21D;56981;53.532;49.398;2022-09-28T14:22:09;11.57;85.74
69715;HTU21D;56981;53.532;49.398;2022-09-28T14:32:41;11.61;85.19
69715;HTU21D;56981;53.532;49.398;2022-09-28T14:37:39;11.61;84.96
69715;HTU21D;56981;53.532;49.398;2022-09-28T14:40:31;11.63;84.86
69715;HTU21D;56981;53.532;49.398;2022-09-28T14:48:57;11.68;84.44
69715;HTU21D;56981;53.532;49.398;2022-09-28T14:53:52;11.70;84.34
69715;HTU21D;56981;53.532;49.398;2022-09-28T14:56:20;11.69;84.41
69715;HTU21D;56981;53.532;49.398;2022-09-28T14:58:52;11.68;84.10
69715;HTU21D;56981;53.532;49.398;2022-09-28T15:01:20;11.67;84.57
69715;HTU21D;56981;53.532;49.398;2022-09-28T15:03:50;11.66;84.29
69715;HTU21D;56981;53.532;49.398;2022-09-28T15:06:17;11.66;84.43
69715;HTU21D;56981;53.532;49.398;2022-09-28T15:08:45;11.66;84.11
69715;HTU21D;56981;53.532;49.398;2022-09-28T15:11:19;11.66;84.27
69715;HTU21D;56981;53.532;49.398;2022-09-28T15:13:47;11.62;84.45
69715;HTU21D;56981;53.532;49.398;2022-09-28T15:16:22;11.63;84.09
69715;HTU21D;56981;53.532;49.398;2022-09-28T15:21:39;11.62;84.36
69715;HTU21D;56981;53.532;49.398;2022-09-28T15:24:25;11.63;84.19
69715;HTU21D;56981;53.532;49.398;2022-09-28T15:26:54;11.61;84.19
69715;HTU21D;56981;53.532;49.398;2022-09-28T15:29:21;11.63;84.30
69715;HTU21D;56981;53.532;49.398;2022-09-28T15:31:48;11.63;83.98
69715;HTU21D;56981;53.532;49.398;2022-09-28T15:34:31;11.63;84.37
69715;HTU21D;56981;53.532;49.398;2022-09-28T15:37:21;11.64;83.71
69715;HTU21D;56981;53.532;49.398;2022-09-28T15:39:51;11.64;83.81
69715;HTU21D;56981;53.532;49.398;2022-09-28T15:42:18;11.66;83.84
69715;HTU21D;56981;53.532;49.398;2022-09-28T15:47:30;11.67;83.84
69715;HTU21D;56981;53.532;49.398;2022-09-28T15:50:06;11.68;83.76
69715;HTU21D;56981;53.532;49.398;2022-09-28T15:52:42;11.66;83.52
69715;HTU21D;56981;53.532;49.398;2022-09-28T15:55:23;11.68;83.71
69715;HTU21D;56981;53.532;49.398;2022-09-28T15:58:03;11.68;83.76
69715;HTU21D;56981;53.532;49.398;2022-09-28T16:00:30;11.70;83.58
69715;HTU21D;56981;53.532;49.398;2022-09-28T16:05:43;11.71;83.55
69715;HTU21D;56981;53.532;49.398;2022-09-28T16:08:40;11.70;83.97
69715;HTU21D;56981;53.532;49.398;2022-09-28T16:11:11;11.71;84.14
69715;HTU21D;56981;53.532;49.398;2022-09-28T16:14:05;11.73;84.14
69715;HTU21D;56981;53.532;49.398;2022-09-28T16:16:36;11.72;84.10
69715;HTU21D;56981;53.532;49.398;2022-09-28T16:19:03;11.72;83.85
69715;HTU21D;56981;53.532;49.398;2022-09-28T16:24:02;11.77;83.62
69715;HTU21D;56981;53.532;49.398;2022-09-28T16:26:32;11.78;83.46
69715;HTU21D;56981;53.532;49.398;2022-09-28T16:28:59;11.83;82.99
69715;HTU21D;56981;53.532;49.398;2022-09-28T16:31:31;11.85;82.24
69715;HTU21D;56981;53.532;49.398;2022-09-28T16:34:08;11.88;81.76
69715;HTU21D;56981;53.532;49.398;2022-09-28T16:36:40;11.89;82.17
69715;HTU21D;56981;53.532;49.398;2022-09-28T16:39:08;11.93;81.88
69715;HTU21D;56981;53.532;49.398;2022-09-28T16:41:39;11.93;81.79
69715;HTU21D;56981;53.532;49.398;2022-09-28T16:44:14;11.96;81.68
69715;HTU21D;56981;53.532;49.398;2022-09-28T16:46:42;11.97;81.43
69715;HTU21D;56981;53.532;49.398;2022-09-28T16:49:11;11.99;81.33
69715;HTU21D;56981;53.532;49.398;2022-09-28T16:51:45;12.00;81.51
69715;HTU21D;56981;53.532;49.398;2022-09-28T16:54:20;12.01;81.55
69715;HTU21D;56981;53.532;49.398;2022-09-28T16:57:06;11.99;81.45
69715;HTU21D;56981;53.532;49.398;2022-09-28T16:59:32;11.99;81.43
69715;HTU21D;56981;53.532;49.398;2022-09-28T17:01:58;11.98;81.46
69715;HTU21D;56981;53.532;49.398;2022-09-28T17:04:25;12.00;81.36
69715;HTU21D;56981;53.532;49.398;2022-09-28T17:06:52;12.03;81.03
69715;HTU21D;56981;53.532;49.398;2022-09-28T17:09:20;12.02;81.41
69715;HTU21D;56981;53.532;49.398;2022-09-28T17:11:47;12.02;81.13
69715;HTU21D;56981;53.532;49.398;2022-09-28T17:14:14;12.03;80.98
69715;HTU21D;56981;53.532;49.398;2022-09-28T17:16:40;12.05;81.21
69715;HTU21D;56981;53.532;49.398;2022-09-28T17:19:21;12.05;81.18
69715;HTU21D;56981;53.532;49.398;2022-09-28T17:21:51;12.03;81.12
69715;HTU21D;56981;53.532;49.398;2022-09-28T17:24:18;12.04;81.20
69715;HTU21D;56981;53.532;49.398;2022-09-28T17:26:45;12.01;81.14
69715;HTU21D;56981;53.532;49.398;2022-09-28T17:29:13;12.02;81.44
69715;HTU21D;56981;53.532;49.398;2022-09-28T17:31:44;12.04;81.17
69715;HTU21D;56981;53.532;49.398;2022-09-28T17:34:12;12.04;81.25
69715;HTU21D;56981;53.532;49.398;2022-09-28T17:36:40;12.04;81.03
69715;HTU21D;56981;53.532;49.398;2022-09-28T17:39:15;12.06;81.28
69715;HTU21D;56981;53.532;49.398;2022-09-28T17:41:41;12.05;80.88
69715;HTU21D;56981;53.532;49.398;2022-09-28T17:44:08;12.07;80.91
69715;HTU21D;56981;53.532;49.398;2022-09-28T17:46:39;12.08;80.67
69715;HTU21D;56981;53.532;49.398;2022-09-28T17:49:10;12.10;80.55
69715;HTU21D;56981;53.532;49.398;2022-09-28T17:51:37;12.08;80.52
69715;HTU21D;56981;53.532;49.398;2022-09-28T17:54:04;12.08;80.78
69715;HTU21D;56981;53.532;49.398;2022-09-28T17:56:31;12.11;80.68
69715;HTU21D;56981;53.532;49.398;2022-09-28T17:58:59;12.08;80.30
69715;HTU21D;56981;53.532;49.398;2022-09-28T18:01:25;12.08;80.49
69715;HTU21D;56981;53.532;49.398;2022-09-28T18:04:02;12.08;80.88
69715;HTU21D;56981;53.532;49.398;2022-09-28T18:06:29;12.07;80.66
69715;HTU21D;56981;53.532;49.398;2022-09-28T18:09:04;12.08;80.71
69715;HTU21D;56981;53.532;49.398;2022-09-28T18:11:32;12.11;80.72
69715;HTU21D;56981;53.532;49.398;2022-09-28T18:13:58;12.14;80.69
69715;HTU21D;56981;53.532;49.398;2022-09-28T18:16:24;12.13;80.75
69715;HTU21D;56981;53.532;49.398;2022-09-28T18:18:52;12.13;80.50
69715;HTU21D;56981;53.532;49.398;2022-09-28T18:21:18;12.14;80.46
69715;HTU21D;56981;53.532;49.398;2022-09-28T18:23:44;12.15;80.45
69715;HTU21D;56981;53.532;49.398;2022-09-28T18:26:11;12.16;80.58
69715;HTU21D;56981;53.532;49.398;2022-09-28T18:28:38;12.18;80.51
69715;HTU21D;56981;53.532;49.398;2022-09-28T18:31:11;12.17;80.75
69715;HTU21D;56981;53.532;49.398;2022-09-28T18:33:37;12.18;80.59
69715;HTU21D;56981;53.532;49.398;2022-09-28T18:36:05;12.20;80.30